Latest Coastal Weather Observations for Cape Willoughby

IDS60701

Issued at 1:11 pm CST Tuesday 28 June 2016 (issued every 10 minutes, with the page automatically refreshed every 10 minutes)

About coastal observations | Map of coastal stations | Coastal observations for SA | Marine services | Other Formats
Station Details ID: 022803 Name: CAPE WILLOUGHBY Lat: -35.84 Lon: 138.13 Height: 55.0 m
Data from the previous 72 hours. | See also: Recent months at Cape Willoughby
Date/Time
CST
Temp
°C
Wind Pressure Rain since
9am
mm
Weather Cloud Vis
km
Sea
Height
m
Swell
Dir  Spd
kts
Gust
kts
hPa Trend Height
m
Period
s
Dir
28/01:00pm 14.4 NW 18 25 1024.7 - 0.0 - - - - - - -
28/12:30pm 14.9 NW 16 23 1024.9 - 0.0 - - - - - - -
28/12:00pm 15.4 NW 17 23 1025.2 - 0.0 - - - - - - -
28/11:30am 15.2 NW 15 20 1025.5 - 0.0 - - - - - - -
28/11:00am 14.8 NW 14 19 1025.6 - 0.0 - - - - - - -
28/10:30am 13.8 NW 15 19 1025.8 - 0.0 - - - - - - -
28/10:00am 13.1 NW 11 15 1025.7 - 0.0 - - - - - - -
28/09:30am 12.4 NW 10 11 1025.5 - 0.0 - - - - - - -
28/09:00am 12.5 NNW 12 14 1025.2 - 1.6 Recent precip. - - - - - -
28/08:30am 12.1 NW 11 13 1024.9 - 1.4 - - - - - - -
28/08:00am 12.3 NW 12 14 1024.8 - 0.6 - - - - - - -
28/07:30am 12.2 NW 13 16 1024.4 - 0.6 - - - - - - -
28/07:00am 12.1 NW 13 16 1023.9 - 0.6 - - - - - - -
28/06:30am 11.9 NW 13 16 1023.6 - 0.6 - - - - - - -
28/06:00am 11.9 NW 12 15 1023.2 - 0.6 - - - - - - -
28/05:30am 12.1 NW 13 16 1022.9 - 0.6 - - - - - - -
28/05:00am 12.3 NW 11 15 1022.7 - 0.6 - - - - - - -
28/04:30am 12.0 NW 12 15 1022.5 - 0.6 - - - - - - -
28/04:00am 11.8 NW 12 14 1022.5 - 0.6 - - - - - - -
28/03:30am 11.9 NW 14 17 1022.6 - 0.6 - - - - - - -
28/03:00am 12.2 NW 13 18 1022.6 - 0.4 - - - - - - -
28/02:30am 12.2 NW 14 17 1022.7 - 0.4 - - - - - - -
28/02:00am 11.9 NW 12 14 1022.7 - 0.4 - - - - - - -
28/01:30am 12.1 NW 11 15 1022.6 - 0.4 - - - - - - -
28/01:00am 12.4 NW 13 16 1022.7 - 0.4 - - - - - - -
28/12:30am 12.1 NW 13 16 1022.7 - 0.4 - - - - - - -
28/12:00am 12.0 NW 13 15 1022.7 - 0.4 - - - - - - -
 
Date/Time
CST
Temp
°C
Wind Pressure Rain since
9am
mm
Weather Cloud Vis
km
Sea
Height
m
Swell
Dir  Spd
kts
Gust
kts
hPa Trend Height
m
Period
s
Dir
27/11:30pm 12.1 NW 13 17 1022.7 - 0.4 - - - - - - -
27/11:00pm 11.9 NW 13 15 1022.5 - 0.4 - - - - - - -
27/10:30pm 11.7 NW 13 16 1022.4 - 0.4 - - - - - - -
27/10:00pm 11.7 NW 14 16 1022.4 - 0.4 - - - - - - -
27/09:30pm 11.5 NW 12 15 1022.4 - 0.4 - - - - - - -
27/09:00pm 11.4 NW 13 16 1022.3 - 0.4 - - - - - - -
27/08:30pm 11.3 NW 12 15 1022.3 - 0.4 - - - - - - -
27/08:00pm 11.1 NW 12 13 1022.1 - 0.4 - - - - - - -
27/07:30pm 11.2 WNW 12 13 1022.1 - 0.4 - - - - - - -
27/07:00pm 11.4 WNW 12 13 1021.9 - 0.4 - - - - - - -
27/06:30pm 11.8 NW 10 12 1021.5 - 0.4 - - - - - - -
27/06:00pm 11.8 NW 10 11 1021.2 - 0.4 - - - - - - -
27/05:30pm 11.9 WNW 10 10 1021.0 - 0.4 - - - - - - -
27/05:00pm 12.7 WNW 10 13 1020.8 - 0.4 - - - - - - -
27/04:30pm 13.4 WNW 8 10 1020.6 - 0.4 - - - - - - -
27/04:00pm 13.9 W 5 7 1020.5 - 0.4 - - - - - - -
27/03:30pm 13.9 WNW 12 17 1020.5 - 0.4 - - - - - - -
27/03:00pm 15.0 NW 12 17 1020.1 - 0.0 - - - - - - -
27/02:30pm 14.9 NW 13 19 1019.9 - 0.0 - - - - - - -
27/02:00pm 15.1 NW 10 15 1020.1 - 0.0 - - - - - - -
27/01:30pm 14.7 W 8 11 1020.2 - 0.0 - - - - - - -
27/01:00pm 13.9 WSW 13 18 1020.4 - 0.0 - - - - - - -
27/12:30pm 14.6 WNW 9 13 1020.6 - 0.0 - - - - - - -
27/12:00pm 15.1 WNW 9 13 1020.9 - 0.0 - - - - - - -
27/11:30am 14.4 WNW 9 12 1021.1 - 0.0 - - - - - - -
27/11:00am 14.1 WNW 7 10 1021.0 - 0.0 - - - - - - -
27/10:30am 12.6 WNW 5 7 1021.2 - 0.0 - - - - - - -
27/10:00am 14.0 WNW 6 8 1021.0 - 0.0 - - - - - - -
27/09:30am 12.9 W 4 5 1020.6 - 0.0 - - - - - - -
27/09:00am 12.0 W 5 7 1020.5 - 0.0 - - - - - - -
27/08:30am 11.5 WSW 8 10 1020.1 - 0.0 - - - - - - -
27/08:00am 11.9 WSW 10 13 1019.8 - 0.0 - - - - - - -
27/07:30am 12.8 SW 12 17 1019.2 - 0.0 - - - - - - -
27/07:00am 12.5 SSW 11 14 1018.7 - 0.0 - - - - - - -
27/06:30am 11.8 SW 11 16 1018.4 - 0.0 - - - - - - -
27/06:00am 12.4 SSW 13 18 1017.8 - 0.0 - - - - - - -
27/05:30am 12.4 SSW 14 17 1017.5 - 0.0 - - - - - - -
27/05:00am 12.5 SSW 15 18 1017.1 - 0.0 - - - - - - -
27/04:30am 12.6 SSW 17 21 1016.7 - 0.0 - - - - - - -
27/04:00am 12.7 SSW 16 23 1016.5 - 0.0 - - - - - - -
27/03:30am 12.2 S 16 22 1016.2 - 0.0 - - - - - - -
27/03:00am 12.4 S 12 19 1016.2 - 0.0 - - - - - - -
27/02:30am 12.0 S 14 19 1016.2 - 0.0 - - - - - - -
27/02:00am 12.2 SSW 12 19 1016.1 - 0.0 - - - - - - -
27/01:30am 11.2 SW 9 17 1016.0 - 0.0 - - - - - - -
27/01:00am 10.5 WSW 11 14 1016.1 - 0.0 - - - - - - -
27/12:30am 10.1 W 11 14 1016.0 - 0.0 - - - - - - -
27/12:00am 10.8 W 11 15 1015.8 - 0.0 - - - - - - -
 
Date/Time
CST
Temp
°C
Wind Pressure Rain since
9am
mm
Weather Cloud Vis
km
Sea
Height
m
Swell
Dir  Spd
kts
Gust
kts
hPa Trend Height
m
Period
s
Dir
26/11:30pm 11.1 WNW 10 13 1015.8 - 0.0 - - - - - - -
26/11:00pm 11.2 WNW 12 14 1015.8 - 0.0 - - - - - - -
26/10:30pm 11.1 WNW 12 14 1015.8 - 0.0 - - - - - - -
26/10:00pm 11.6 NW 12 15 1015.4 - 0.0 - - - - - - -
26/09:30pm 11.6 NW 13 16 1015.4 - 0.0 - - - - - - -
26/09:00pm 11.6 NW 12 15 1015.5 - 0.0 - - - - - - -
26/08:30pm 11.3 NW 12 14 1015.4 - 0.0 - - - - - - -
26/08:00pm 11.1 NW 11 14 1015.3 - 0.0 - - - - - - -
26/07:30pm 11.3 NW 10 12 1015.2 - 0.0 - - - - - - -
26/07:00pm 11.3 NW 11 13 1015.2 - 0.0 - - - - - - -
26/06:30pm 11.3 NW 10 12 1015.2 - 0.0 - - - - - - -
26/06:00pm 11.3 NW 11 14 1015.0 - 0.0 - - - - - - -
26/05:30pm 11.1 NW 10 12 1014.8 - 0.0 - - - - - - -
26/05:00pm 11.9 NW 11 15 1014.7 - 0.0 - - - - - - -
26/04:30pm 12.4 NW 9 13 1014.4 - 0.0 - - - - - - -
26/04:00pm 12.1 NNW 17 20 1014.1 - 0.0 - - - - - - -
26/03:30pm 12.2 NNW 17 20 1014.1 - 0.0 - - - - - - -
26/03:00pm 13.0 NNW 15 21 1014.1 - 0.0 - - - - - - -
26/02:30pm 12.8 NNW 19 26 1014.2 - 0.0 - - - - - - -
26/02:00pm 12.7 NNW 17 23 1014.5 - 0.0 - - - - - - -
26/01:30pm 12.7 NNW 17 23 1014.8 - 0.0 - - - - - - -
26/01:00pm 13.2 NNW 19 24 1015.0 - 0.0 - - - - - - -
26/12:30pm 12.6 NNW 22 29 1015.2 - 0.0 - - - - - - -
26/12:00pm 13.4 NNW 19 27 1015.5 - 0.0 - - - - - - -
26/11:46am 13.1 NNW 18 28 1015.9 - 0.0 - - - - - - -
26/11:30am 12.8 NNW 21 28 1016.2 - 0.0 - - - - - - -
26/11:00am 13.4 NNW 21 26 1016.5 - 0.0 - - - - - - -
26/10:30am 13.1 NNW 18 26 1016.8 - 0.0 - - - - - - -
26/10:00am 12.6 NNW 17 24 1016.9 - 0.0 - - - - - - -
26/09:30am 12.4 NNW 21 27 1016.6 - 0.0 - - - - - - -
26/09:00am 12.0 NW 15 19 1016.9 - 0.2 - - - - - - -
26/08:30am 11.7 NNW 16 21 1016.8 - 0.2 - - - - - - -
26/08:00am 10.9 NW 13 17 1016.7 - 0.2 - - - - - - -
26/07:30am 10.6 NW 13 17 1016.8 - 0.2 - - - - - - -
26/07:00am 10.5 NW 14 18 1016.7 - 0.2 - - - - - - -
26/06:30am 10.9 NNW 13 18 1016.6 - 0.2 - - - - - - -
26/06:00am 11.1 NW 18 22 1016.6 - 0.2 - - - - - - -
26/05:30am 11.4 NNW 18 23 1016.7 - 0.2 - - - - - - -
26/05:00am 11.3 NNW 17 23 1016.8 - 0.2 - - - - - - -
26/04:30am 11.3 NNW 19 24 1017.2 - 0.2 - - - - - - -
26/04:00am 11.5 NNW 20 25 1017.3 - 0.2 - - - - - - -
26/03:30am 11.5 NNW 18 24 1017.5 - 0.2 - - - - - - -
26/03:00am 11.8 NNW 18 26 1017.7 - 0.2 - - - - - - -
26/02:30am 11.6 NNW 19 23 1017.9 - 0.2 - - - - - - -
26/02:00am 11.4 NNW 16 23 1018.0 - 0.2 - - - - - - -
26/01:30am 11.2 NW 13 18 1018.7 - 0.2 - - - - - - -
26/01:00am 11.0 NW 13 16 1018.7 - 0.2 - - - - - - -
26/12:30am 11.4 NW 15 20 1019.0 - 0.2 - - - - - - -
26/12:00am 11.3 NW 16 22 1019.1 - 0.2 - - - - - - -
 
Date/Time
CST
Temp
°C
Wind Pressure Rain since
9am
mm
Weather Cloud Vis
km
Sea
Height
m
Swell
Dir  Spd
kts
Gust
kts
hPa Trend Height
m
Period
s
Dir
25/11:30pm 11.6 NNW 16 21 1019.4 - 0.2 - - - - - - -
25/11:00pm 11.6 N 19 23 1019.4 - 0.2 - - - - - - -
25/10:30pm 11.5 NNW 13 16 1019.8 - 0.2 - - - - - - -
25/10:00pm 11.2 NNW 13 16 1019.7 - 0.2 - - - - - - -
25/09:30pm 11.0 NNW 13 16 1019.8 - 0.2 - - - - - - -
25/09:00pm 10.3 NNW 7 9 1020.4 - 0.2 - - - - - - -
25/08:30pm 10.0 NNW 8 10 1020.6 - 0.2 - - - - - - -
25/08:00pm 9.6 NW 11 15 1021.1 - 0.2 - - - - - - -
25/07:30pm 9.7 NW 13 17 1021.6 - 0.2 - - - - - - -
25/07:00pm 9.8 NW 15 19 1021.2 - 0.2 - - - - - - -
25/06:30pm 10.1 NW 13 19 1020.9 - 0.2 - - - - - - -
25/06:00pm 11.2 NNW 14 23 1020.9 - 0.2 Rain - - - - - -
25/05:30pm 11.7 N 16 19 1020.7 - 0.0 - - - - - - -
25/05:00pm 11.6 NNW 16 20 1020.9 - 0.0 - - - - - - -
25/04:30pm 11.6 N 16 19 1020.8 - 0.0 - - - - - - -
25/04:00pm 12.3 N 15 18 1021.0 - 0.0 - - - - - - -
25/03:30pm 12.8 N 14 18 1021.2 - 0.0 - - - - - - -
25/03:00pm 12.9 N 17 20 1021.4 - 0.0 - - - - - - -
25/02:30pm 12.1 NNW 18 20 1021.4 - 0.0 - - - - - - -
25/02:00pm 12.3 N 19 22 1021.7 - 0.0 - - - - - - -
25/01:30pm 12.8 N 16 20 1022.0 - 0.0 - - - - - - -

Other Formats:

Comma delimited format used in spreadsheet applications
http://www.bom.gov.au/fwo/IDS60701/IDS60701.94822.axf

JavaScript Object Notation format (JSON) in row-major order
http://www.bom.gov.au/fwo/IDS60701/IDS60701.94822.json